Time;durP1;ratioP1;P1;durP2;ratioP2;P2;SDS_P1;SDS_P2;PMS_P1;PMS_P2;Temp;Humidity;BMP_temperature;BMP_pressure;BME280_temperature;BME280_humidity;BME280_pressure;Samples;Min_cycle;Max_cycle;Signal;HPM_P1;HPM_P2
2022/08/23 00:00:46;;;;;;;8.40;3.78;;;19.50;99.90;;;;;;5058711;28;20430;-71
2022/08/23 00:03:12;;;;;;;5.70;2.88;;;18.30;99.90;;;;;;5058292;28;20120;-72
2022/08/23 00:05:37;;;;;;;9.15;3.35;;;18.60;99.90;;;;;;5062064;28;20033;-71
2022/08/23 00:08:04;;;;;;;6.82;3.03;;;18.50;99.90;;;;;;5063148;28;20086;-71
2022/08/23 00:10:29;;;;;;;7.13;3.03;;;18.40;99.90;;;;;;5062870;28;20817;-73
2022/08/23 00:12:55;;;;;;;6.40;2.92;;;18.40;99.90;;;;;;5062268;28;20049;-75
2022/08/23 00:15:21;;;;;;;6.85;3.50;;;18.40;99.90;;;;;;5063264;28;20036;-76
2022/08/23 00:17:47;;;;;;;6.20;2.85;;;18.30;99.90;;;;;;5065469;28;20055;-72
2022/08/23 00:20:16;;;;;;;9.52;3.15;;;18.80;99.90;;;;;;5064439;28;20052;-72
2022/08/23 00:22:42;;;;;;;6.90;3.38;;;18.20;99.90;;;;;;5060882;28;20047;-72
2022/08/23 00:25:11;;;;;;;8.50;3.28;;;18.20;99.90;;;;;;5061954;28;20057;-73
2022/08/23 00:27:37;;;;;;;7.45;3.00;;;18.20;99.90;;;;;;5053734;28;20040;-71
2022/08/23 00:30:05;;;;;;;5.85;3.08;;;18.40;99.90;;;;;;5061179;28;20045;-72
2022/08/23 00:32:34;;;;;;;5.40;2.67;;;18.20;99.90;;;;;;5064556;28;20515;-72
2022/08/23 00:35:00;;;;;;;8.55;2.70;;;18.20;99.90;;;;;;5065212;28;20107;-72
2022/08/23 00:37:28;;;;;;;4.95;3.10;;;18.20;99.90;;;;;;5062168;28;20431;-72
2022/08/23 00:39:54;;;;;;;7.88;3.45;;;18.70;99.90;;;;;;5061895;28;20123;-71
2022/08/23 00:48:41;;;;;;;7.72;3.13;;;18.00;99.90;;;;;;5053664;28;20080;-71
2022/08/23 00:51:36;;;;;;;5.82;2.97;;;18.00;99.90;;;;;;5060739;28;20070;-72
2022/08/23 00:54:03;;;;;;;9.15;3.50;;;17.90;99.90;;;;;;5039286;28;20524;-72
2022/08/23 00:56:32;;;;;;;7.15;3.55;;;17.90;99.90;;;;;;5064701;28;20041;-73
2022/08/23 00:58:58;;;;;;;7.63;2.95;;;17.80;99.90;;;;;;5063887;28;20045;-72
2022/08/23 01:01:24;;;;;;;5.53;3.08;;;17.80;99.90;;;;;;5062821;28;20059;-72
2022/08/23 01:03:52;;;;;;;8.25;3.78;;;17.70;99.90;;;;;;5060971;28;20037;-75
2022/08/23 01:06:26;;;;;;;7.55;3.50;;;17.80;99.90;;;;;;5060235;28;20527;-75
2022/08/23 01:08:56;;;;;;;5.45;3.20;;;17.70;99.90;;;;;;5064647;28;20036;-76
2022/08/23 01:11:25;;;;;;;7.60;3.05;;;18.00;99.90;;;;;;5061067;28;20036;-72
2022/08/23 01:13:57;;;;;;;5.75;3.50;;;17.70;99.90;;;;;;5060607;28;20449;-77
2022/08/23 01:16:44;;;;;;;6.20;3.95;;;17.60;99.90;;;;;;5062945;28;20164;-75
2022/08/23 01:19:53;;;;;;;6.75;3.38;;;17.60;99.90;;;;;;5062707;28;20044;-75
2022/08/23 01:22:42;;;;;;;5.63;2.72;;;17.70;99.90;;;;;;5059050;28;20045;-77
2022/08/23 01:25:11;;;;;;;4.97;3.08;;;17.60;99.90;;;;;;5045981;28;20048;-77
2022/08/23 01:27:38;;;;;;;6.70;3.08;;;17.60;99.90;;;;;;5060282;28;20401;-76
2022/08/23 01:30:06;;;;;;;10.30;3.67;;;17.50;99.90;;;;;;5060444;28;20044;-76
2022/08/23 01:32:39;;;;;;;5.22;3.42;;;17.40;99.90;;;;;;5062529;28;20056;-76
2022/08/23 01:35:04;;;;;;;7.45;3.15;;;17.40;99.90;;;;;;5062796;28;20075;-74
2022/08/23 01:37:31;;;;;;;5.40;2.90;;;17.40;99.90;;;;;;5064131;28;20048;-73
2022/08/23 01:39:56;;;;;;;6.70;3.20;;;17.40;99.90;;;;;;5059752;28;20541;-75
2022/08/23 01:42:22;;;;;;;5.43;3.05;;;17.30;99.90;;;;;;5061346;28;20148;-72
2022/08/23 01:44:48;;;;;;;4.93;2.80;;;17.30;99.90;;;;;;5063920;28;20043;-72
2022/08/23 01:47:13;;;;;;;4.85;3.05;;;17.30;99.90;;;;;;5063006;28;20129;-73
2022/08/23 01:49:39;;;;;;;9.07;3.42;;;17.30;99.90;;;;;;5051920;28;20504;-72
2022/08/23 01:52:05;;;;;;;4.78;3.08;;;17.30;99.90;;;;;;5060182;28;20037;-71
2022/08/23 01:54:30;;;;;;;6.93;2.80;;;17.30;99.90;;;;;;5061734;28;20341;-72
2022/08/23 01:56:57;;;;;;;4.15;2.90;;;17.30;99.90;;;;;;5063392;28;20051;-75
2022/08/23 01:59:23;;;;;;;6.07;3.10;;;17.30;99.90;;;;;;5062215;28;20135;-72
2022/08/23 02:01:49;;;;;;;3.33;2.25;;;17.30;99.90;;;;;;5041267;28;20121;-74
2022/08/23 02:04:14;;;;;;;6.22;3.50;;;17.40;99.90;;;;;;5060062;28;20028;-75
2022/08/23 02:06:40;;;;;;;9.45;3.95;;;17.40;99.90;;;;;;5050499;28;20033;-71
2022/08/23 02:09:06;;;;;;;6.78;3.17;;;17.30;99.90;;;;;;5059152;28;20037;-75
2022/08/23 02:11:36;;;;;;;6.97;3.65;;;17.30;99.90;;;;;;5061921;28;20076;-72
2022/08/23 02:14:09;;;;;;;4.70;3.10;;;17.30;99.90;;;;;;5061952;28;20128;-72
2022/08/23 02:16:39;;;;;;;5.22;2.72;;;17.60;99.90;;;;;;5058664;28;20052;-71
2022/08/23 02:19:08;;;;;;;5.28;3.35;;;17.30;99.90;;;;;;5060091;28;20124;-72
2022/08/23 02:21:36;;;;;;;7.70;3.55;;;17.20;99.90;;;;;;5061976;28;20055;-72
2022/08/23 02:24:26;;;;;;;4.55;3.67;;;17.20;99.90;;;;;;5062084;28;20052;-72
2022/08/23 02:26:55;;;;;;;6.70;3.55;;;17.20;99.90;;;;;;5052646;28;20101;-72
2022/08/23 02:29:22;;;;;;;8.98;4.15;;;17.20;99.90;;;;;;5059184;28;20059;-73
2022/08/23 02:31:48;;;;;;;7.18;3.90;;;17.20;99.90;;;;;;5061618;28;20040;-73
2022/08/23 02:34:15;;;;;;;8.10;4.32;;;17.20;99.90;;;;;;5061629;28;20041;-73
2022/08/23 02:36:42;;;;;;;7.22;4.20;;;17.80;99.90;;;;;;5058879;28;20040;-73
2022/08/23 02:39:09;;;;;;;6.80;4.88;;;18.10;99.90;;;;;;5058307;28;20098;-76
2022/08/23 02:41:37;;;;;;;6.05;4.50;;;18.00;99.90;;;;;;5043590;28;20041;-76
2022/08/23 02:44:06;;;;;;;8.48;4.38;;;17.10;99.90;;;;;;5063923;28;20054;-78
2022/08/23 02:46:32;;;;;;;6.88;4.40;;;17.10;99.90;;;;;;5061260;28;20123;-73
2022/08/23 02:48:57;;;;;;;6.28;4.63;;;17.10;99.90;;;;;;5041302;28;20495;-73
2022/08/23 02:51:23;;;;;;;7.65;4.30;;;17.60;99.90;;;;;;5058934;28;20036;-72
2022/08/23 02:53:49;;;;;;;6.43;4.22;;;17.00;99.90;;;;;;5062714;28;20105;-72
2022/08/23 02:56:15;;;;;;;6.00;4.05;;;17.10;99.90;;;;;;5062667;28;20077;-72
2022/08/23 02:58:41;;;;;;;8.00;3.75;;;17.00;99.90;;;;;;5040660;28;20403;-72
2022/08/23 03:01:22;;;;;;;5.15;4.45;;;17.00;99.90;;;;;;5059134;28;20037;-72
2022/08/23 03:03:47;;;;;;;7.43;4.50;;;17.00;99.90;;;;;;5051467;28;20100;-72
2022/08/23 03:06:14;;;;;;;6.90;4.40;;;17.70;99.90;;;;;;5058490;28;20178;-72
2022/08/23 03:08:42;;;;;;;9.77;4.82;;;17.00;99.90;;;;;;5061820;28;20049;-72
2022/08/23 03:11:15;;;;;;;7.15;4.32;;;17.00;99.90;;;;;;5061820;28;20036;-72
2022/08/23 03:13:42;;;;;;;9.60;5.18;;;17.00;99.90;;;;;;5059160;28;20033;-72
2022/08/23 03:16:09;;;;;;;7.22;4.65;;;17.00;99.90;;;;;;5059066;28;20502;-73
2022/08/23 03:18:36;;;;;;;6.43;4.60;;;16.90;99.90;;;;;;5058972;28;20047;-71
2022/08/23 03:21:02;;;;;;;9.32;5.43;;;17.20;99.90;;;;;;5062429;28;20033;-73
2022/08/23 03:23:28;;;;;;;10.88;5.35;;;16.90;99.90;;;;;;5060707;28;20087;-72
2022/08/23 03:25:56;;;;;;;11.35;5.05;;;16.90;99.90;;;;;;5058177;28;20150;-72
2022/08/23 03:28:22;;;;;;;7.43;5.38;;;16.90;99.90;;;;;;5057645;28;20045;-73
2022/08/23 03:30:48;;;;;;;9.25;4.78;;;16.90;99.90;;;;;;5061376;28;20123;-72
2022/08/23 03:33:14;;;;;;;12.93;5.13;;;16.90;99.90;;;;;;5061424;28;20112;-71
2022/08/23 03:35:41;;;;;;;6.43;5.03;;;16.90;99.90;;;;;;5059665;28;20040;-72
2022/08/23 03:38:07;;;;;;;6.07;5.05;;;16.90;99.90;;;;;;5041022;28;20037;-72
2022/08/23 03:40:33;;;;;;;9.02;5.60;;;17.10;99.90;;;;;;5059589;28;20132;-73
2022/08/23 03:43:00;;;;;;;6.38;4.85;;;17.10;99.90;;;;;;5063437;28;20488;-75
2022/08/23 03:45:26;;;;;;;6.78;5.35;;;16.90;99.90;;;;;;5065638;28;20039;-76
2022/08/23 03:47:51;;;;;;;11.23;5.30;;;16.90;99.90;;;;;;5062382;28;20037;-75
2022/08/23 03:50:17;;;;;;;9.25;6.10;;;16.90;99.90;;;;;;5062831;28;20060;-73
2022/08/23 03:52:43;;;;;;;7.93;5.78;;;16.90;99.90;;;;;;5047451;28;20044;-73
2022/08/23 03:55:09;;;;;;;7.70;5.63;;;16.90;99.90;;;;;;5065575;28;20060;-73
2022/08/23 03:57:35;;;;;;;7.95;5.47;;;16.80;99.90;;;;;;5064105;28;20045;-73
2022/08/23 04:00:00;;;;;;;10.77;6.25;;;16.90;99.90;;;;;;5062642;28;20040;-72
2022/08/23 04:02:26;;;;;;;6.93;6.18;;;16.80;99.90;;;;;;5061079;28;20043;-74
2022/08/23 04:04:52;;;;;;;7.07;5.88;;;16.80;99.90;;;;;;5064608;28;20033;-73
2022/08/23 04:07:19;;;;;;;12.35;6.30;;;16.80;99.90;;;;;;5065263;28;20120;-76
2022/08/23 04:09:46;;;;;;;7.55;6.57;;;16.70;99.90;;;;;;5063245;28;20431;-72
2022/08/23 04:12:12;;;;;;;8.70;6.00;;;16.70;99.90;;;;;;5045274;28;20049;-76
2022/08/23 04:14:38;;;;;;;9.02;6.55;;;16.70;99.90;;;;;;5063701;28;20120;-73
2022/08/23 04:17:03;;;;;;;9.60;6.20;;;16.70;99.90;;;;;;5048071;28;20091;-76
2022/08/23 04:19:30;;;;;;;7.40;6.40;;;16.70;99.90;;;;;;5063793;28;20041;-73
2022/08/23 04:21:58;;;;;;;8.25;7.00;;;16.70;99.90;;;;;;5061750;28;20076;-74
2022/08/23 04:24:24;;;;;;;7.00;6.10;;;16.70;99.90;;;;;;5060650;28;20051;-72
2022/08/23 04:26:49;;;;;;;12.10;6.88;;;16.70;99.90;;;;;;5053833;28;20036;-72
2022/08/23 04:29:16;;;;;;;8.75;6.90;;;16.70;99.90;;;;;;5059928;28;20448;-73
2022/08/23 04:31:44;;;;;;;7.47;6.68;;;16.70;99.90;;;;;;5064399;28;20052;-71
2022/08/23 04:34:10;;;;;;;8.52;7.13;;;16.70;99.90;;;;;;5065668;28;20029;-73
2022/08/23 04:36:39;;;;;;;7.93;6.75;;;16.70;99.90;;;;;;5063253;28;20044;-72
2022/08/23 04:39:06;;;;;;;8.38;7.65;;;16.60;99.90;;;;;;5062236;28;20071;-74
2022/08/23 04:44:16;;;;;;;12.38;7.25;;;16.60;99.90;;;;;;5064740;28;20036;-75
2022/08/23 04:46:42;;;;;;;9.23;8.10;;;16.60;99.90;;;;;;5062948;28;20090;-72
2022/08/23 04:49:09;;;;;;;8.82;7.00;;;16.50;99.90;;;;;;5061868;28;20037;-74
2022/08/23 04:51:35;;;;;;;9.23;7.18;;;16.50;99.90;;;;;;5061742;28;20055;-76
2022/08/23 04:54:01;;;;;;;11.25;8.13;;;17.20;99.90;;;;;;5065035;28;20068;-73
2022/08/23 04:56:27;;;;;;;10.38;9.32;;;16.50;99.90;;;;;;5064128;28;20477;-72
2022/08/23 04:58:53;;;;;;;10.40;8.13;;;17.30;99.90;;;;;;5061717;28;20123;-73
2022/08/23 05:01:19;;;;;;;9.43;8.45;;;16.50;99.90;;;;;;5060213;28;20393;-72
2022/08/23 05:03:45;;;;;;;10.88;9.77;;;16.40;99.90;;;;;;5063038;28;20378;-73
2022/08/23 05:06:11;;;;;;;12.88;9.95;;;16.60;99.90;;;;;;5064851;28;20040;-73
2022/08/23 05:08:37;;;;;;;12.13;9.55;;;16.90;99.90;;;;;;5063425;28;20571;-71
2022/08/23 05:11:05;;;;;;;10.20;9.20;;;16.40;99.90;;;;;;5060511;28;20041;-73
2022/08/23 05:13:32;;;;;;;12.90;10.38;;;16.40;99.90;;;;;;5061233;28;20468;-73
2022/08/23 05:15:57;;;;;;;15.68;10.50;;;16.40;99.90;;;;;;5064705;28;20043;-71
2022/08/23 05:18:24;;;;;;;14.73;11.27;;;16.40;99.90;;;;;;5063910;28;20044;-75
2022/08/23 05:20:50;;;;;;;15.63;12.00;;;16.40;99.90;;;;;;5061695;28;20091;-75
2022/08/23 05:23:16;;;;;;;13.85;12.55;;;16.40;99.90;;;;;;5059336;28;20504;-72
2022/08/23 05:25:51;;;;;;;13.88;11.10;;;16.60;99.90;;;;;;5060629;28;20045;-73
2022/08/23 05:28:21;;;;;;;12.43;11.13;;;16.40;99.90;;;;;;5062979;28;20048;-74
2022/08/23 05:31:11;;;;;;;15.73;12.73;;;16.40;99.90;;;;;;5061068;28;20051;-72
2022/08/23 05:33:38;;;;;;;17.48;11.80;;;16.50;99.90;;;;;;5059058;28;20052;-71
2022/08/23 05:36:05;;;;;;;14.70;13.05;;;16.50;99.90;;;;;;5060881;28;20041;-73
2022/08/23 05:38:31;;;;;;;18.70;14.45;;;16.50;99.90;;;;;;5061023;28;20083;-71
2022/08/23 05:40:57;;;;;;;14.00;12.30;;;16.50;99.90;;;;;;5063846;28;20100;-72
2022/08/23 05:43:24;;;;;;;14.68;13.10;;;16.50;99.90;;;;;;5062615;28;20053;-71
2022/08/23 05:46:22;;;;;;;17.08;12.48;;;16.50;99.90;;;;;;5060811;28;20037;-73
2022/08/23 05:48:50;;;;;;;15.00;12.30;;;16.60;99.90;;;;;;5039556;28;20049;-71
2022/08/23 05:51:24;;;;;;;18.13;12.68;;;16.60;99.90;;;;;;5063499;28;20429;-72
2022/08/23 05:53:52;;;;;;;18.40;12.80;;;16.70;99.90;;;;;;5055119;28;20048;-72
2022/08/23 05:56:21;;;;;;;13.27;11.15;;;16.80;99.90;;;;;;5063802;28;20029;-72
2022/08/23 05:58:48;;;;;;;13.52;11.85;;;16.80;99.90;;;;;;5061384;28;20048;-72
2022/08/23 06:01:15;;;;;;;17.58;11.00;;;16.80;99.90;;;;;;5059487;28;20041;-72
2022/08/23 06:03:42;;;;;;;14.10;11.70;;;16.80;99.90;;;;;;5061210;28;20083;-73
2022/08/23 06:06:08;;;;;;;12.25;11.02;;;17.00;99.90;;;;;;5063330;28;20037;-74
2022/08/23 06:08:37;;;;;;;13.35;11.95;;;16.90;99.90;;;;;;5062883;28;20078;-75
2022/08/23 06:11:05;;;;;;;14.02;12.57;;;16.90;99.90;;;;;;5058762;28;20041;-72
2022/08/23 06:13:31;;;;;;;14.85;13.23;;;16.90;99.90;;;;;;5058849;28;20041;-71
2022/08/23 06:15:57;;;;;;;14.48;11.73;;;16.90;99.90;;;;;;5061069;28;20111;-72
2022/08/23 06:18:24;;;;;;;13.75;12.45;;;16.90;99.90;;;;;;5063289;28;20115;-72
2022/08/23 06:21:08;;;;;;;13.38;11.68;;;17.00;99.90;;;;;;5060675;28;20041;-72
2022/08/23 06:23:34;;;;;;;11.48;10.40;;;17.00;99.90;;;;;;5059850;28;20567;-72
2022/08/23 06:26:00;;;;;;;13.07;10.40;;;17.00;99.90;;;;;;5051648;28;20129;-71
2022/08/23 06:28:28;;;;;;;13.15;11.80;;;17.10;99.90;;;;;;5059169;28;20037;-71
2022/08/23 06:30:57;;;;;;;14.80;10.38;;;17.30;99.90;;;;;;5062326;28;20045;-71
2022/08/23 06:33:25;;;;;;;14.85;11.30;;;17.10;99.90;;;;;;5063055;28;20123;-71
2022/08/23 06:36:04;;;;;;;13.80;11.15;;;17.20;99.90;;;;;;5060413;28;20041;-72
2022/08/23 06:38:30;;;;;;;12.27;10.65;;;17.20;99.90;;;;;;5059800;28;20076;-72
2022/08/23 06:41:00;;;;;;;10.98;9.82;;;17.20;99.90;;;;;;5044367;28;20036;-72
2022/08/23 06:43:26;;;;;;;12.68;9.90;;;18.00;99.90;;;;;;5044641;28;20048;-72
2022/08/23 06:45:52;;;;;;;11.93;10.55;;;17.30;99.90;;;;;;5060996;28;20094;-72
2022/08/23 06:48:18;;;;;;;12.65;11.13;;;17.40;99.90;;;;;;5059538;28;20041;-72
2022/08/23 06:50:43;;;;;;;14.15;10.52;;;18.20;99.90;;;;;;5058620;28;20045;-73
2022/08/23 06:53:09;;;;;;;11.35;9.88;;;18.10;99.90;;;;;;5062681;28;20432;-71
2022/08/23 06:55:35;;;;;;;11.43;10.05;;;17.50;99.90;;;;;;5061787;28;20062;-72
2022/08/23 06:58:02;;;;;;;11.07;9.52;;;17.60;99.90;;;;;;5058948;28;20037;-72
2022/08/23 07:00:28;;;;;;;11.40;9.90;;;17.60;99.90;;;;;;5059312;28;20052;-72
2022/08/23 07:02:53;;;;;;;11.95;9.52;;;17.90;99.90;;;;;;5061570;28;20045;-73
2022/08/23 07:05:20;;;;;;;12.07;10.00;;;18.50;99.90;;;;;;5064248;28;20043;-74
2022/08/23 07:07:45;;;;;;;14.82;9.80;;;17.80;99.90;;;;;;5062115;28;20040;-72
2022/08/23 07:10:11;;;;;;;11.20;10.15;;;17.80;99.90;;;;;;5058798;28;20043;-72
2022/08/23 07:12:40;;;;;;;11.50;8.60;;;17.90;99.90;;;;;;5057707;28;20486;-73
2022/08/23 07:15:07;;;;;;;10.70;8.52;;;18.60;99.90;;;;;;5051256;28;20495;-73
2022/08/23 07:17:32;;;;;;;10.15;9.10;;;18.00;99.90;;;;;;5059161;28;20436;-73
2022/08/23 07:19:58;;;;;;;10.88;7.80;;;18.10;99.90;;;;;;5065995;28;20041;-72
2022/08/23 07:22:23;;;;;;;8.63;7.82;;;18.10;99.90;;;;;;5066692;28;20047;-72
2022/08/23 07:24:49;;;;;;;12.25;7.57;;;18.20;99.90;;;;;;5064672;28;20427;-72
2022/08/23 07:27:15;;;;;;;11.82;8.20;;;18.60;99.90;;;;;;5063151;28;20053;-72
2022/08/23 07:29:41;;;;;;;10.63;7.72;;;18.30;99.90;;;;;;5060493;28;20448;-72
2022/08/23 07:32:07;;;;;;;11.18;7.85;;;18.30;99.90;;;;;;5054841;28;20045;-73
2022/08/23 07:34:33;;;;;;;7.63;6.85;;;18.40;99.90;;;;;;5063330;28;20037;-72
2022/08/23 07:37:00;;;;;;;10.77;7.57;;;18.50;99.90;;;;;;5064926;28;20048;-73
2022/08/23 07:39:26;;;;;;;9.27;7.93;;;18.90;99.90;;;;;;5066396;28;20044;-72
2022/08/23 07:41:51;;;;;;;9.82;8.13;;;18.70;99.90;;;;;;5064824;28;20037;-73
2022/08/23 07:44:17;;;;;;;10.15;6.88;;;18.70;99.90;;;;;;5062113;28;20079;-75
2022/08/23 07:46:44;;;;;;;9.18;7.70;;;18.80;99.90;;;;;;5062818;28;20119;-72
2022/08/23 07:49:14;;;;;;;12.95;7.55;;;18.80;99.90;;;;;;5066533;28;20044;-72
2022/08/23 07:51:41;;;;;;;8.57;7.47;;;19.40;99.90;;;;;;5065269;28;20048;-73
2022/08/23 07:54:08;;;;;;;11.23;6.78;;;19.00;99.90;;;;;;5062950;28;20037;-72
2022/08/23 07:56:35;;;;;;;11.00;6.97;;;19.10;99.90;;;;;;5062574;28;20393;-72
2022/08/23 07:59:06;;;;;;;8.00;6.50;;;20.00;99.90;;;;;;5062951;28;20045;-72
2022/08/23 08:01:32;;;;;;;12.05;6.90;;;19.30;99.90;;;;;;5065932;28;20315;-72
2022/08/23 08:04:00;;;;;;;9.18;6.03;;;19.40;99.90;;;;;;5064061;28;20048;-73
2022/08/23 08:06:31;;;;;;;9.05;6.45;;;20.00;99.90;;;;;;5061871;28;20122;-73
2022/08/23 08:08:57;;;;;;;10.57;5.78;;;19.60;99.90;;;;;;5064095;28;20099;-74
2022/08/23 08:11:26;;;;;;;9.27;5.53;;;19.70;99.90;;;;;;5066072;28;20041;-72
2022/08/23 08:13:53;;;;;;;12.02;6.13;;;19.80;99.90;;;;;;5063980;28;20051;-73
2022/08/23 08:16:35;;;;;;;9.50;5.00;;;19.90;99.90;;;;;;5062522;28;20118;-74
2022/08/23 08:19:04;;;;;;;8.55;5.40;;;20.20;99.90;;;;;;5063894;28;20041;-76
2022/08/23 08:21:29;;;;;;;8.82;4.70;;;20.10;99.90;;;;;;5064333;28;20516;-77
2022/08/23 08:23:57;;;;;;;6.93;4.95;;;20.20;99.90;;;;;;5064142;28;20139;-73
2022/08/23 08:26:23;;;;;;;6.80;4.68;;;20.30;99.90;;;;;;5061325;28;20485;-73
2022/08/23 08:28:49;;;;;;;7.03;4.32;;;20.40;99.90;;;;;;5062163;28;20091;-73
2022/08/23 08:31:15;;;;;;;10.15;4.72;;;20.50;99.90;;;;;;5064403;28;20040;-73
2022/08/23 08:33:41;;;;;;;8.50;4.40;;;20.80;99.90;;;;;;5065015;28;20116;-73
2022/08/23 08:36:08;;;;;;;10.23;4.30;;;20.70;99.90;;;;;;5062853;28;20152;-73
2022/08/23 08:38:37;;;;;;;5.30;3.83;;;20.80;99.90;;;;;;5061919;28;20041;-72
2022/08/23 08:41:16;;;;;;;6.30;3.65;;;20.90;99.90;;;;;;5063047;28;20059;-73
2022/08/23 08:44:10;;;;;;;5.50;2.60;;;21.00;99.90;;;;;;5065406;28;20124;-72
2022/08/23 08:46:55;;;;;;;6.53;2.75;;;21.10;99.90;;;;;;5055236;28;20053;-72
2022/08/23 08:49:33;;;;;;;4.80;2.60;;;21.20;99.90;;;;;;5054273;28;20072;-72
2022/08/23 08:52:19;;;;;;;3.58;2.35;;;21.20;99.90;;;;;;5061673;28;20098;-73
2022/08/23 08:54:47;;;;;;;4.28;2.00;;;21.30;99.90;;;;;;5064564;28;20094;-73
2022/08/23 08:57:17;;;;;;;4.72;2.35;;;22.10;99.90;;;;;;5061931;28;20041;-73
2022/08/23 08:59:54;;;;;;;8.25;2.17;;;21.40;99.90;;;;;;5061447;28;20045;-74
2022/08/23 09:02:23;;;;;;;5.72;2.55;;;21.50;99.90;;;;;;5052834;28;20040;-73
2022/08/23 09:04:49;;;;;;;5.63;2.13;;;21.60;99.90;;;;;;5061366;28;20041;-73
2022/08/23 09:07:43;;;;;;;5.68;1.90;;;21.70;99.90;;;;;;5064691;28;20042;-74
2022/08/23 09:10:29;;;;;;;5.27;2.20;;;21.80;99.90;;;;;;5059731;28;20076;-74
2022/08/23 09:13:16;;;;;;;5.80;2.67;;;21.90;99.90;;;;;;5061807;28;20047;-73
2022/08/23 09:15:56;;;;;;;6.15;2.50;;;22.00;99.90;;;;;;5063964;28;20366;-76
2022/08/23 09:18:23;;;;;;;5.95;2.40;;;22.00;99.90;;;;;;5053613;28;20048;-75
2022/08/23 09:20:52;;;;;;;7.15;2.40;;;22.20;99.90;;;;;;5042884;28;20045;-75
2022/08/23 09:23:31;;;;;;;4.53;2.05;;;22.00;99.90;;;;;;5051956;28;20053;-72
2022/08/23 09:25:59;;;;;;;6.07;2.10;;;22.10;99.90;;;;;;5060464;28;20122;-73
2022/08/23 09:28:28;;;;;;;4.70;1.98;;;22.70;99.90;;;;;;5063157;28;20170;-72
2022/08/23 09:30:56;;;;;;;5.32;1.92;;;22.20;99.90;;;;;;5063559;28;20040;-76
2022/08/23 09:33:48;;;;;;;6.57;2.33;;;22.20;99.90;;;;;;5060842;28;20477;-74
2022/08/23 09:36:27;;;;;;;4.38;2.47;;;22.30;99.90;;;;;;5062965;28;20044;-72
2022/08/23 09:38:56;;;;;;;4.93;2.17;;;22.40;99.90;;;;;;5064213;28;20071;-72
2022/08/23 09:41:47;;;;;;;8.50;2.08;;;22.40;99.90;;;;;;5051559;28;20037;-72
2022/08/23 09:44:31;;;;;;;4.63;2.42;;;22.60;99.90;;;;;;5060612;28;20053;-73
2022/08/23 09:47:13;;;;;;;7.18;3.17;;;22.70;99.90;;;;;;5064272;28;20080;-75
2022/08/23 09:49:41;;;;;;;7.78;3.25;;;22.90;99.90;;;;;;5060930;28;20033;-74
2022/08/23 09:52:25;;;;;;;6.10;2.38;;;22.90;99.90;;;;;;5061248;28;20045;-76
2022/08/23 09:55:01;;;;;;;6.03;3.10;;;23.00;99.90;;;;;;5064308;28;20101;-72
2022/08/23 09:57:29;;;;;;;9.52;3.53;;;23.20;99.90;;;;;;5054268;28;20064;-72
2022/08/23 10:00:17;;;;;;;8.95;2.60;;;23.30;99.90;;;;;;5060513;28;20036;-74
2022/08/23 10:02:43;;;;;;;7.78;2.10;;;23.50;99.90;;;;;;5053427;28;20079;-72
2022/08/23 10:05:17;;;;;;;7.32;2.63;;;23.40;99.90;;;;;;5060875;28;20048;-74
2022/08/23 10:07:54;;;;;;;5.50;2.25;;;23.50;99.90;;;;;;5063710;28;20135;-74
2022/08/23 10:10:26;;;;;;;7.25;2.92;;;23.70;99.90;;;;;;5042734;28;20075;-73
2022/08/23 10:12:53;;;;;;;4.78;2.05;;;23.60;99.90;;;;;;5059286;28;20472;-72
2022/08/23 10:15:23;;;;;;;4.78;1.70;;;23.70;99.90;;;;;;5062777;28;20123;-72
2022/08/23 10:17:59;;;;;;;3.88;1.67;;;23.80;99.90;;;;;;5063389;28;20067;-72
2022/08/23 10:20:51;;;;;;;4.72;2.30;;;24.00;99.90;;;;;;5059632;28;20041;-74
2022/08/23 10:23:22;;;;;;;5.65;2.20;;;24.00;99.90;;;;;;5062172;28;20511;-74
2022/08/23 10:25:57;;;;;;;6.82;2.05;;;24.10;99.90;;;;;;5063465;28;20060;-73
2022/08/23 10:29:36;;;;;;;4.68;2.10;;;24.10;99.90;;;;;;5088399;27;20503;-73
2022/08/23 10:32:07;;;;;;;3.15;1.83;;;24.20;99.90;;;;;;5084683;28;20590;-75
2022/08/23 10:34:50;;;;;;;3.72;2.33;;;24.30;99.90;;;;;;5080795;28;20044;-76
2022/08/23 10:37:46;;;;;;;3.67;2.55;;;24.40;99.90;;;;;;5088659;28;20369;-76
2022/08/23 10:40:22;;;;;;;4.95;1.83;;;24.40;99.90;;;;;;5087711;28;20050;-75
2022/08/23 10:42:48;;;;;;;5.15;1.70;;;24.50;99.90;;;;;;5088095;28;20101;-73
2022/08/23 10:45:31;;;;;;;4.05;1.90;;;24.80;99.90;;;;;;5088297;28;20036;-76
2022/08/23 10:48:15;;;;;;;8.37;1.97;;;24.80;99.90;;;;;;5087798;28;20110;-73
2022/08/23 10:50:53;;;;;;;4.60;1.90;;;24.80;99.90;;;;;;5081190;28;20408;-75
2022/08/23 10:53:21;;;;;;;3.58;1.58;;;24.90;99.90;;;;;;5088138;28;20048;-73
2022/08/23 10:56:06;;;;;;;3.92;2.00;;;24.90;99.90;;;;;;5088290;28;20050;-75
2022/08/23 10:58:53;;;;;;;3.92;1.73;;;25.00;99.90;;;;;;5080130;28;20044;-74
2022/08/23 11:01:22;;;;;;;5.53;2.20;;;25.10;99.90;;;;;;5087155;28;20051;-74
2022/08/23 11:04:03;;;;;;;3.45;1.60;;;25.20;99.90;;;;;;5087928;28;20044;-76
2022/08/23 11:06:46;;;;;;;7.22;1.70;;;25.20;99.90;;;;;;5088082;28;20051;-76
2022/08/23 11:09:17;;;;;;;5.93;1.75;;;25.30;99.90;;;;;;5087160;28;20036;-74
2022/08/23 11:11:50;;;;;;;2.30;1.38;;;25.50;99.90;;;;;;5086442;28;20074;-72
2022/08/23 11:14:25;;;;;;;5.00;2.13;;;25.70;99.90;;;;;;5087916;28;20111;-74
2022/08/23 11:16:59;;;;;;;10.23;1.92;;;25.80;99.90;;;;;;5087446;28;20044;-74
2022/08/23 11:19:51;;;;;;;4.32;1.70;;;25.90;99.90;;;;;;5086690;28;20093;-75
2022/08/23 11:22:22;;;;;;;4.65;1.77;;;26.00;99.90;;;;;;5086831;28;20479;-73
2022/08/23 11:25:14;;;;;;;5.93;1.45;;;26.10;99.90;;;;;;5087669;28;20048;-77
2022/08/23 11:27:42;;;;;;;3.00;1.45;;;26.20;99.90;;;;;;5067735;28;20048;-76
2022/08/23 11:30:58;;;;;;;6.95;1.85;;;26.30;99.70;;;;;;5086892;28;20093;-76
2022/08/23 11:33:33;;;;;;;3.70;1.73;;;26.50;99.50;;;;;;5076280;28;20055;-75
2022/08/23 11:36:20;;;;;;;6.50;1.85;;;26.50;98.70;;;;;;5086815;28;20549;-75
2022/08/23 11:38:46;;;;;;;4.50;1.70;;;26.50;99.00;;;;;;5073874;28;20037;-77
2022/08/23 11:41:50;;;;;;;2.20;1.50;;;26.60;98.90;;;;;;5072240;28;20090;-74
2022/08/23 11:44:21;;;;;;;2.80;1.60;;;26.70;99.20;;;;;;5073226;28;20064;-73
2022/08/23 11:46:58;;;;;;;4.65;1.83;;;26.90;99.00;;;;;;5073884;28;20138;-74
2022/08/23 11:49:29;;;;;;;3.70;1.70;;;27.00;98.50;;;;;;5073656;28;20086;-72
2022/08/23 11:52:17;;;;;;;3.63;1.40;;;27.10;97.70;;;;;;5072660;28;20036;-73
2022/08/23 11:55:03;;;;;;;6.63;1.70;;;27.20;97.40;;;;;;5048521;28;20456;-74
2022/08/23 11:57:29;;;;;;;4.75;1.63;;;27.10;96.40;;;;;;5071799;28;20063;-72
2022/08/23 12:00:15;;;;;;;5.53;1.60;;;27.40;95.30;;;;;;5073511;28;20037;-72
2022/08/23 12:02:51;;;;;;;4.18;1.48;;;27.40;95.80;;;;;;5065279;28;20040;-73
2022/08/23 12:05:32;;;;;;;5.35;1.48;;;27.50;95.50;;;;;;5071439;28;20463;-77
2022/08/23 12:08:01;;;;;;;2.97;1.10;;;27.60;94.70;;;;;;5073584;28;20119;-73
2022/08/23 12:10:41;;;;;;;4.05;1.50;;;27.60;93.90;;;;;;5073044;28;20052;-75
2022/08/23 12:13:19;;;;;;;4.03;1.60;;;27.70;94.80;;;;;;5072780;28;20037;-75
2022/08/23 12:16:10;;;;;;;3.40;1.45;;;27.90;94.00;;;;;;5065815;28;20108;-73
2022/08/23 12:18:48;;;;;;;18.05;2.03;;;28.10;93.70;;;;;;5072569;28;20132;-73
2022/08/23 12:21:26;;;;;;;3.60;1.60;;;28.30;93.70;;;;;;5072830;28;20039;-73
2022/08/23 12:23:56;;;;;;;3.83;1.50;;;28.30;93.50;;;;;;5066340;28;20076;-74
2022/08/23 12:26:37;;;;;;;2.88;1.45;;;28.40;92.90;;;;;;5072066;28;20058;-74
2022/08/23 12:29:21;;;;;;;5.13;1.73;;;28.50;92.10;;;;;;5072737;28;20493;-73
2022/08/23 12:31:56;;;;;;;5.30;1.65;;;28.50;91.70;;;;;;5063819;28;20133;-74
2022/08/23 12:34:36;;;;;;;6.78;1.45;;;28.50;91.70;;;;;;5072499;28;20047;-74
2022/08/23 12:37:11;;;;;;;4.45;1.50;;;28.50;92.00;;;;;;5073045;28;20037;-73
2022/08/23 12:39:53;;;;;;;1.63;1.20;;;28.40;91.50;;;;;;5072092;28;20048;-74
2022/08/23 12:42:30;;;;;;;3.63;2.17;;;28.30;91.70;;;;;;5072999;28;20044;-74
2022/08/23 12:45:22;;;;;;;3.30;1.50;;;28.40;91.50;;;;;;5074185;28;20076;-76
2022/08/23 12:47:57;;;;;;;4.38;1.73;;;28.40;91.00;;;;;;5065178;28;20040;-75
2022/08/23 12:50:29;;;;;;;3.90;1.38;;;28.40;90.90;;;;;;5071267;28;20036;-77
2022/08/23 12:52:58;;;;;;;8.20;1.85;;;28.30;90.80;;;;;;5072053;28;20059;-75
2022/08/23 12:55:29;;;;;;;6.63;1.70;;;28.40;90.20;;;;;;5072248;28;20051;-76
2022/08/23 12:57:56;;;;;;;3.13;1.48;;;28.40;90.60;;;;;;5072520;28;20041;-75
2022/08/23 13:00:37;;;;;;;9.10;1.58;;;28.30;90.60;;;;;;5071471;28;20044;-77
2022/08/23 13:03:18;;;;;;;6.75;1.98;;;28.20;89.70;;;;;;5072322;28;20046;-78
2022/08/23 13:05:52;;;;;;;3.35;1.35;;;28.30;89.30;;;;;;5072156;28;20037;-76
2022/08/23 13:08:33;;;;;;;2.85;1.42;;;28.10;90.00;;;;;;5070424;28;20041;-76
2022/08/23 13:10:59;;;;;;;4.85;1.60;;;28.00;90.20;;;;;;5064117;28;20052;-76
2022/08/23 13:13:26;;;;;;;8.07;1.85;;;28.00;90.00;;;;;;5072054;28;20072;-74